Time;durP1;ratioP1;P1;durP2;ratioP2;P2;SDS_P1;SDS_P2;PMS_P1;PMS_P2;Temp;Humidity;BMP_temperature;BMP_pressure;BME280_temperature;BME280_humidity;BME280_pressure;Samples;Min_cycle;Max_cycle;Signal;HPM_P1;HPM_P2
2023/01/08 00:01:40;;;;;;;;;7.33;7.00;;;;;12.85;67.10;100066.47;5113196;27;44900;-66
2023/01/08 00:04:05;;;;;;;;;7.00;3.67;;;;;12.83;66.45;100064.66;5109312;27;44997;-67
2023/01/08 00:06:30;;;;;;;;;8.00;6.67;;;;;12.78;66.43;100066.41;5094676;27;52210;-65
2023/01/08 00:08:56;;;;;;;;;4.33;4.33;;;;;12.73;66.88;100053.88;5094847;27;45107;-68
2023/01/08 00:11:22;;;;;;;;;5.33;5.00;;;;;12.70;66.72;100047.59;5111247;27;45384;-67
2023/01/08 00:13:49;;;;;;;;;7.67;6.33;;;;;12.72;66.51;100048.53;5105401;27;45318;-67
2023/01/08 00:16:17;;;;;;;;;8.67;7.67;;;;;12.78;66.62;100048.53;5100064;27;45172;-67
2023/01/08 00:18:43;;;;;;;;;6.00;4.67;;;;;12.79;67.01;100049.47;5107941;27;45197;-67
2023/01/08 00:21:08;;;;;;;;;9.33;8.00;;;;;12.77;66.40;100043.16;5112368;27;44995;-67
2023/01/08 00:23:35;;;;;;;;;8.33;8.33;;;;;12.77;66.69;100051.22;5111602;27;44964;-67
2023/01/08 00:26:05;;;;;;;;;5.67;5.67;;;;;12.75;67.08;100048.53;5105650;27;45967;-68
2023/01/08 00:28:30;;;;;;;;;10.33;7.67;;;;;12.69;67.48;100038.66;5109980;27;45220;-67
2023/01/08 00:30:56;;;;;;;;;5.00;5.00;;;;;12.71;67.66;100039.56;5110525;27;44935;-65
2023/01/08 00:33:21;;;;;;;;;8.67;6.00;;;;;12.64;67.24;100026.16;5117546;27;45178;-66
2023/01/08 00:35:47;;;;;;;;;9.00;7.00;;;;;12.70;67.66;100053.88;5101301;27;45405;-67
2023/01/08 00:38:12;;;;;;;;;4.00;4.00;;;;;12.70;67.77;100053.88;5105189;27;45981;-67
2023/01/08 00:40:39;;;;;;;;;5.00;5.00;;;;;12.57;67.35;100025.16;5089170;27;45389;-66
2023/01/08 00:43:05;;;;;;;;;8.00;7.00;;;;;12.72;67.29;100045.84;5108485;27;45450;-67
2023/01/08 00:45:30;;;;;;;;;8.33;7.00;;;;;12.67;66.61;100028.81;5100085;27;46652;-66
2023/01/08 00:47:56;;;;;;;;;18.67;14.00;;;;;12.68;66.60;100038.66;5100173;27;45315;-66
2023/01/08 00:50:21;;;;;;;;;6.00;5.67;;;;;12.70;66.56;100045.84;5115218;27;44945;-67
2023/01/08 00:52:46;;;;;;;;;4.00;2.00;;;;;12.63;67.13;100025.22;5109455;27;45569;-67
2023/01/08 00:55:12;;;;;;;;;7.00;5.67;;;;;12.68;67.41;100026.16;5109149;27;45471;-68
2023/01/08 00:57:38;;;;;;;;;6.00;5.00;;;;;12.71;66.31;100011.88;5109847;27;45628;-65
2023/01/08 01:00:07;;;;;;;;;6.33;6.33;;;;;12.67;65.77;100010.97;5110566;27;45180;-66
2023/01/08 01:02:34;;;;;;;;;3.67;3.67;;;;;12.69;66.54;100019.91;5111066;27;45141;-67
2023/01/08 01:05:00;;;;;;;;;6.33;5.33;;;;;12.68;65.67;100023.47;5108410;27;45180;-66
2023/01/08 01:07:25;;;;;;;;;3.00;3.00;;;;;12.60;66.67;100018.94;5106788;27;44902;-65
2023/01/08 01:09:50;;;;;;;;;5.00;5.00;;;;;12.59;66.35;100017.16;5107745;27;45131;-66
2023/01/08 01:12:16;;;;;;;;;9.00;6.00;;;;;12.60;66.36;99994.84;5088223;27;45104;-66
2023/01/08 01:14:41;;;;;;;;;8.67;7.33;;;;;12.60;66.05;100005.56;5106355;27;45427;-67
2023/01/08 01:17:07;;;;;;;;;6.67;5.67;;;;;12.52;66.63;99979.63;5108803;27;44968;-67
2023/01/08 01:19:32;;;;;;;;;5.00;5.00;;;;;12.59;65.60;99999.31;5108289;27;50982;-67
2023/01/08 01:21:58;;;;;;;;;4.00;4.00;;;;;12.62;66.44;100009.13;5108527;27;52301;-66
2023/01/08 01:24:23;;;;;;;;;3.00;3.00;;;;;12.56;66.35;99998.41;5112603;27;45926;-65
2023/01/08 01:26:50;;;;;;;;;11.00;6.33;;;;;12.56;65.66;99996.59;5110497;27;45072;-65
2023/01/08 01:29:16;;;;;;;;;4.33;4.33;;;;;12.55;65.88;100000.16;5106075;27;45161;-66
2023/01/08 01:31:41;;;;;;;;;4.67;4.00;;;;;12.53;65.75;99996.59;5109534;27;45215;-66
2023/01/08 01:34:08;;;;;;;;;4.67;4.67;;;;;12.52;66.35;100001.06;5107451;27;45640;-66
2023/01/08 01:36:33;;;;;;;;;2.67;2.00;;;;;12.43;66.32;99995.63;5106099;27;45008;-66
2023/01/08 01:38:59;;;;;;;;;4.00;3.00;;;;;12.47;65.72;99999.22;5100075;27;45095;-66
2023/01/08 01:41:39;;;;;;;;;5.00;3.67;;;;;12.40;65.42;99997.41;5095280;27;45157;-66
2023/01/08 01:44:40;;;;;;;;;4.00;4.00;;;;;12.39;66.36;100009.91;5089031;27;45870;-67
2023/01/08 01:47:33;;;;;;;;;2.33;1.00;;;;;12.38;65.62;100018.81;5131850;27;45153;-66
2023/01/08 01:50:07;;;;;;;;;5.00;3.33;;;;;12.15;65.53;99975.78;5116643;27;44919;-66
2023/01/08 01:52:38;;;;;;;;;4.67;3.33;;;;;12.41;65.71;100015.28;5110906;27;45131;-67
2023/01/08 01:55:06;;;;;;;;;4.00;4.00;;;;;12.43;66.18;100018.84;5109237;27;46381;-66
2023/01/08 01:57:32;;;;;;;;;7.00;3.00;;;;;12.37;65.70;100017.00;5108073;27;45153;-66
2023/01/08 01:59:59;;;;;;;;;4.00;4.00;;;;;12.43;65.20;100016.16;5111990;27;45016;-67
2023/01/08 02:02:24;;;;;;;;;2.00;2.00;;;;;12.42;65.91;100022.41;5112493;27;45157;-67
2023/01/08 02:04:50;;;;;;;;;3.33;3.33;;;;;12.34;65.84;100017.91;5111836;27;45614;-67
2023/01/08 02:07:39;;;;;;;;;2.67;2.67;;;;;12.36;65.13;100025.94;5093159;27;45086;-67
2023/01/08 02:10:18;;;;;;;;;2.00;2.00;;;;;12.34;65.36;100025.94;5107036;27;45114;-66
2023/01/08 02:12:47;;;;;;;;;1.33;1.33;;;;;12.35;65.95;100029.50;5107894;27;45110;-67
2023/01/08 02:15:20;;;;;;;;;4.00;3.00;;;;;12.38;65.38;100018.81;5107637;27;45750;-66
2023/01/08 02:18:17;;;;;;;;;4.00;2.00;;;;;12.40;65.78;100026.88;5112189;27;45109;-66
2023/01/08 02:20:49;;;;;;;;;3.00;1.00;;;;;12.33;65.25;100007.16;5111061;27;45211;-67
2023/01/08 02:23:33;;;;;;;;;2.00;2.00;;;;;12.44;65.01;100023.31;5115777;27;44696;-65
2023/01/08 02:26:04;;;;;;;;;4.00;2.00;;;;;12.42;64.54;100023.28;5114024;27;46389;-66
2023/01/08 02:28:35;;;;;;;;;4.00;2.00;;;;;12.42;65.33;100034.00;5123072;27;45039;-67
2023/01/08 02:31:01;;;;;;;;;5.00;2.33;;;;;12.34;65.13;100006.25;5109912;27;44964;-66
2023/01/08 02:33:28;;;;;;;;;2.00;2.00;;;;;12.47;65.07;100031.38;5121270;27;44914;-67
2023/01/08 02:36:16;;;;;;;;;3.33;2.00;;;;;12.41;64.51;100013.47;5110237;27;45318;-67
2023/01/08 02:38:55;;;;;;;;;2.00;2.00;;;;;12.46;65.16;100027.81;5114750;27;45264;-66
2023/01/08 02:41:27;;;;;;;;;2.67;2.00;;;;;12.45;65.18;100017.97;5127913;27;45051;-66
2023/01/08 02:43:57;;;;;;;;;3.67;2.00;;;;;12.44;64.85;100021.53;5115581;27;45289;-67
2023/01/08 02:46:28;;;;;;;;;3.00;3.00;;;;;12.37;64.83;100014.31;5096000;27;46431;-66
2023/01/08 02:49:04;;;;;;;;;3.67;2.67;;;;;12.35;66.14;100022.34;5113540;27;45187;-67
2023/01/08 02:51:36;;;;;;;;;2.00;2.00;;;;;12.35;65.77;100010.75;5126206;27;45002;-66
2023/01/08 02:54:06;;;;;;;;;4.33;3.33;;;;;12.37;65.85;100017.00;5096938;27;45116;-66
2023/01/08 02:56:36;;;;;;;;;4.00;2.67;;;;;12.41;65.97;100007.22;5119541;27;46803;-66
2023/01/08 02:59:06;;;;;;;;;2.33;2.33;;;;;12.41;65.82;100015.28;5111868;27;45067;-67
2023/01/08 03:01:33;;;;;;;;;3.67;3.00;;;;;12.35;65.62;100000.03;5113220;27;44985;-66
2023/01/08 03:04:03;;;;;;;;;6.33;3.00;;;;;12.33;65.33;100001.81;5114895;27;45262;-66
2023/01/08 03:06:30;;;;;;;;;2.00;2.00;;;;;12.36;65.86;100015.22;5112729;27;45146;-67
2023/01/08 03:08:58;;;;;;;;;1.00;1.00;;;;;12.16;65.59;99965.09;5115075;27;44902;-66
2023/01/08 03:11:30;;;;;;;;;2.00;2.00;;;;;12.35;65.99;100000.91;5111530;27;45100;-67
2023/01/08 03:14:02;;;;;;;;;2.00;2.00;;;;;12.36;65.86;99996.47;5115213;27;45039;-68
2023/01/08 03:16:37;;;;;;;;;11.00;5.67;;;;;12.30;65.65;99989.28;5112304;27;46149;-66
2023/01/08 03:19:11;;;;;;;;;6.33;4.67;;;;;12.37;65.98;99987.53;5113170;27;45212;-66
2023/01/08 03:21:40;;;;;;;;;7.00;5.67;;;;;12.29;65.83;99976.78;5113799;27;45085;-67
2023/01/08 03:24:07;;;;;;;;;6.33;4.33;;;;;12.34;66.09;99983.06;5114973;27;45218;-66
2023/01/08 03:26:36;;;;;;;;;2.00;2.00;;;;;12.37;65.27;99992.00;5115119;27;45669;-67
2023/01/08 03:29:03;;;;;;;;;4.33;4.00;;;;;12.28;65.79;99974.09;5108782;27;45026;-66
2023/01/08 03:31:33;;;;;;;;;3.33;3.00;;;;;12.33;65.97;99980.38;5113524;27;45544;-66
2023/01/08 03:34:01;;;;;;;;;3.67;3.67;;;;;11.97;66.28;99937.28;5105313;27;45187;-66
2023/01/08 03:36:29;;;;;;;;;5.00;2.00;;;;;12.33;65.83;99989.31;5102360;27;45794;-67
2023/01/08 03:39:18;;;;;;;;;2.33;2.00;;;;;12.32;65.75;99981.25;5113814;27;44950;-67
2023/01/08 03:41:44;;;;;;;;;1.67;1.00;;;;;12.32;65.71;99983.94;5100169;27;45095;-67
2023/01/08 03:44:13;;;;;;;;;1.33;1.00;;;;;12.24;66.17;99965.16;5121521;27;45290;-67
2023/01/08 03:46:44;;;;;;;;;1.67;1.00;;;;;12.22;66.25;99964.22;5122246;27;45338;-67
2023/01/08 03:49:10;;;;;;;;;2.67;2.00;;;;;12.24;66.59;99964.25;5112196;27;45377;-67
2023/01/08 03:51:40;;;;;;;;;2.67;1.00;;;;;12.26;66.26;99981.22;5123763;27;45223;-69
2023/01/08 03:54:10;;;;;;;;;1.00;1.00;;;;;12.23;66.25;99979.41;5116521;27;45959;-65
2023/01/08 03:56:35;;;;;;;;;3.00;2.67;;;;;12.14;66.18;99961.50;5106364;27;46611;-67
2023/01/08 03:59:00;;;;;;;;;1.00;1.00;;;;;12.25;66.65;99972.28;5112848;27;45526;-65
2023/01/08 04:01:26;;;;;;;;;1.00;1.00;;;;;12.23;65.45;99965.16;5114545;27;45021;-69
2023/01/08 04:03:51;;;;;;;;;2.67;1.00;;;;;12.28;66.61;99968.75;5114197;27;44964;-66
2023/01/08 04:06:16;;;;;;;;;2.00;1.33;;;;;12.24;66.35;99970.50;5094985;27;45381;-66
2023/01/08 04:08:42;;;;;;;;;2.33;1.33;;;;;12.16;65.39;99943.66;5113883;27;45123;-67
2023/01/08 04:11:07;;;;;;;;;2.00;2.00;;;;;12.22;65.97;99953.50;5108006;27;45185;-69
2023/01/08 04:13:32;;;;;;;;;1.67;1.67;;;;;12.09;66.34;99923.09;5086123;27;46847;-66
2023/01/08 04:15:58;;;;;;;;;2.00;2.00;;;;;12.10;65.51;99930.22;5092224;27;45937;-68
2023/01/08 04:18:23;;;;;;;;;1.67;1.67;;;;;12.12;65.78;99930.25;5093432;27;44973;-67
2023/01/08 04:20:48;;;;;;;;;2.00;1.00;;;;;12.17;65.41;99947.22;5089395;27;44983;-68
2023/01/08 04:23:14;;;;;;;;;1.00;1.00;;;;;12.14;66.00;99934.75;5088444;27;45030;-66
2023/01/08 04:25:39;;;;;;;;;1.00;1.00;;;;;12.13;65.94;99924.00;5057691;28;46871;-66
2023/01/08 04:28:05;;;;;;;;;2.00;1.33;;;;;12.14;65.40;99925.78;5088027;27;45136;-66
2023/01/08 04:30:30;;;;;;;;;3.00;1.67;;;;;12.15;65.22;99920.44;5093413;27;45047;-67
2023/01/08 04:32:56;;;;;;;;;1.00;1.00;;;;;12.06;65.36;99904.34;5092606;27;45237;-66
2023/01/08 04:35:21;;;;;;;;;0.67;0.00;;;;;12.14;65.62;99916.00;5089834;27;45794;-67
2023/01/08 04:37:46;;;;;;;;;2.33;1.00;;;;;12.10;66.38;99902.56;5089365;27;44944;-67
2023/01/08 04:40:12;;;;;;;;;0.00;0.00;;;;;12.17;67.08;99915.09;5092907;27;45278;-67
2023/01/08 04:42:37;;;;;;;;;1.33;1.00;;;;;12.16;66.67;99913.31;5093751;27;45036;-67
2023/01/08 04:45:04;;;;;;;;;2.00;2.00;;;;;12.16;66.50;99899.94;5095240;27;45704;-66
2023/01/08 04:47:29;;;;;;;;;1.67;1.67;;;;;12.18;67.16;99911.53;5093009;27;45230;-67
2023/01/08 04:49:55;;;;;;;;;3.00;1.00;;;;;12.19;66.76;99896.38;5094182;27;45246;-66
2023/01/08 04:52:20;;;;;;;;;0.67;0.00;;;;;12.11;66.76;99878.47;5104509;27;45192;-68
2023/01/08 04:54:45;;;;;;;;;2.00;1.00;;;;;12.17;67.67;99882.97;5093058;27;46003;-67
2023/01/08 04:57:10;;;;;;;;;1.00;1.00;;;;;12.16;67.71;99886.56;5092840;27;45766;-68
2023/01/08 04:59:36;;;;;;;;;2.33;1.00;;;;;12.19;67.20;99885.66;5090012;27;45056;-68
2023/01/08 05:02:01;;;;;;;;;1.00;1.00;;;;;12.17;66.63;99883.84;5093293;27;45520;-67
2023/01/08 05:04:27;;;;;;;;;2.00;0.33;;;;;12.21;67.13;99895.50;5095301;27;46023;-65
2023/01/08 05:06:52;;;;;;;;;2.00;2.00;;;;;12.19;67.14;99891.91;5086712;27;44835;-68
2023/01/08 05:09:17;;;;;;;;;1.00;1.00;;;;;12.21;67.11;99887.47;5086680;27;45109;-67
2023/01/08 05:11:43;;;;;;;;;1.67;1.00;;;;;12.18;67.55;99884.78;5097717;27;45191;-67
2023/01/08 05:14:08;;;;;;;;;1.67;1.67;;;;;12.17;67.60;99880.28;5114399;27;45445;-67
2023/01/08 05:16:34;;;;;;;;;1.67;1.67;;;;;12.14;66.56;99877.59;5108988;27;45198;-67
2023/01/08 05:18:59;;;;;;;;;1.33;1.00;;;;;12.15;67.35;99887.44;5104210;27;45150;-67
2023/01/08 05:21:24;;;;;;;;;3.00;2.00;;;;;12.16;66.60;99878.53;5110592;27;45452;-67
2023/01/08 05:23:50;;;;;;;;;0.00;0.00;;;;;12.17;67.54;99883.84;5109974;27;45265;-65
2023/01/08 05:26:16;;;;;;;;;1.00;0.00;;;;;12.13;66.91;99876.69;5106338;27;45198;-68
2023/01/08 05:28:42;;;;;;;;;1.67;0.33;;;;;12.03;67.45;99855.22;5110604;27;45212;-66
2023/01/08 05:31:07;;;;;;;;;1.00;1.00;;;;;12.13;67.44;99867.78;5113041;27;45326;-68
2023/01/08 05:33:32;;;;;;;;;3.33;1.00;;;;;12.12;66.94;99872.22;5094307;27;46256;-68
2023/01/08 05:35:58;;;;;;;;;1.00;1.00;;;;;12.05;68.11;99853.47;5094434;27;45040;-67
2023/01/08 05:38:23;;;;;;;;;2.00;2.00;;;;;12.16;66.69;99875.84;5112970;27;45086;-66
2023/01/08 05:40:52;;;;;;;;;0.00;0.00;;;;;12.08;67.87;99873.09;5113693;27;45057;-66
2023/01/08 05:43:18;;;;;;;;;2.00;0.33;;;;;12.06;69.12;99923.06;5126571;27;45782;-68
2023/01/08 05:45:43;;;;;;;;;2.33;0.00;;;;;11.98;69.30;99948.91;5110771;27;45205;-68
2023/01/08 05:48:08;;;;;;;;;0.00;0.00;;;;;11.77;67.40;99928.16;5109820;27;45540;-68
2023/01/08 05:50:34;;;;;;;;;1.00;0.00;;;;;11.63;65.74;99936.06;5112613;27;45114;-68
2023/01/08 05:53:00;;;;;;;;;0.00;0.00;;;;;11.50;66.25;99931.47;5112160;27;45713;-68
2023/01/08 05:55:25;;;;;;;;;0.00;0.00;;;;;11.40;65.20;99917.13;5115309;27;45190;-68
2023/01/08 05:57:51;;;;;;;;;0.00;0.00;;;;;11.33;65.51;99915.28;5115889;27;45083;-67
2023/01/08 06:00:18;;;;;;;;;0.00;0.00;;;;;11.25;65.79;99901.81;5115799;27;44921;-66
2023/01/08 06:02:46;;;;;;;;;0.67;0.00;;;;;11.25;65.62;99902.75;5116238;27;45529;-67
2023/01/08 06:05:12;;;;;;;;;1.00;0.00;;;;;11.19;64.54;99900.00;5114653;27;45647;-66
2023/01/08 06:07:38;;;;;;;;;1.00;0.00;;;;;11.17;64.49;99904.44;5116220;27;45182;-67
2023/01/08 06:10:04;;;;;;;;;0.00;0.00;;;;;11.12;64.48;99900.84;5116195;27;45125;-66
2023/01/08 06:12:29;;;;;;;;;0.00;0.00;;;;;11.04;64.64;99887.38;5115231;27;45153;-66
2023/01/08 06:14:54;;;;;;;;;0.00;0.00;;;;;11.03;63.67;99890.03;5115939;27;44921;-66
2023/01/08 06:17:20;;;;;;;;;0.00;0.00;;;;;10.97;63.46;99882.84;5113334;27;45106;-66
2023/01/08 06:19:47;;;;;;;;;0.00;0.00;;;;;11.04;63.63;99908.75;5117896;27;48058;-65
2023/01/08 06:22:12;;;;;;;;;0.00;0.00;;;;;11.02;63.91;99902.50;5113631;27;45593;-65
2023/01/08 06:24:37;;;;;;;;;0.00;0.00;;;;;10.94;64.14;99893.50;5097218;27;45081;-68
2023/01/08 06:27:03;;;;;;;;;0.67;0.00;;;;;10.94;64.00;99892.59;5115289;27;45941;-66
2023/01/08 06:29:28;;;;;;;;;0.00;0.00;;;;;10.74;63.89;99858.56;5111152;27;45294;-66
2023/01/08 06:31:53;;;;;;;;;0.00;0.00;;;;;10.99;64.26;99906.94;5115668;27;45241;-66
2023/01/08 06:34:19;;;;;;;;;0.00;0.00;;;;;10.90;64.54;99890.78;5114799;27;45111;-66
2023/01/08 06:36:44;;;;;;;;;0.00;0.00;;;;;10.79;64.90;99880.88;5116310;27;45390;-65
2023/01/08 06:39:10;;;;;;;;;0.00;0.00;;;;;10.89;64.41;99905.94;5109604;27;45147;-67
2023/01/08 06:41:35;;;;;;;;;0.00;0.00;;;;;10.87;65.47;99899.63;5114242;27;45895;-67
2023/01/08 06:44:00;;;;;;;;;2.00;0.00;;;;;10.94;65.63;99921.97;5115225;27;45135;-66
2023/01/08 06:46:26;;;;;;;;;0.00;0.00;;;;;10.75;65.85;99899.50;5114815;27;50084;-67
2023/01/08 06:48:51;;;;;;;;;0.33;0.33;;;;;10.86;65.91;99925.47;5114147;27;45091;-66
2023/01/08 06:51:16;;;;;;;;;0.00;0.00;;;;;10.79;66.11;99912.00;5116338;27;45827;-67
2023/01/08 06:53:42;;;;;;;;;0.00;0.00;;;;;10.82;66.14;99915.66;5122565;27;45098;-68
2023/01/08 06:56:09;;;;;;;;;0.00;0.00;;;;;10.80;66.54;99919.16;5108288;27;45287;-67
2023/01/08 06:58:36;;;;;;;;;2.67;0.00;;;;;10.72;67.25;99904.81;5113058;27;45119;-67
2023/01/08 07:01:02;;;;;;;;;0.00;0.00;;;;;10.75;67.01;99918.22;5112547;27;45552;-65
2023/01/08 07:03:27;;;;;;;;;1.00;0.00;;;;;10.74;67.55;99920.00;5109986;27;45134;-66
2023/01/08 07:05:54;;;;;;;;;0.00;0.00;;;;;10.71;67.82;99917.28;5108104;27;45242;-66
2023/01/08 07:08:19;;;;;;;;;1.00;1.00;;;;;10.67;68.43;99911.00;5094080;27;45358;-66
2023/01/08 07:10:45;;;;;;;;;0.67;0.00;;;;;10.62;68.57;99906.47;5115730;27;45384;-66
2023/01/08 07:13:11;;;;;;;;;0.00;0.00;;;;;10.69;68.75;99917.25;5112169;27;45132;-66
2023/01/08 07:15:41;;;;;;;;;0.00;0.00;;;;;10.58;69.03;99902.88;5112270;27;45329;-68
2023/01/08 07:18:08;;;;;;;;;1.67;0.67;;;;;10.66;69.06;99906.53;5102645;27;45287;-67
2023/01/08 07:20:34;;;;;;;;;0.67;0.67;;;;;10.67;69.17;99900.34;5110720;27;45254;-67
2023/01/08 07:23:10;;;;;;;;;0.00;0.00;;;;;10.77;69.00;99913.78;5112271;27;45164;-67
2023/01/08 07:25:36;;;;;;;;;0.67;0.67;;;;;10.71;69.08;99909.28;5095234;27;45414;-67
2023/01/08 07:28:01;;;;;;;;;0.00;0.00;;;;;10.69;69.66;99900.31;5108961;27;45007;-67
2023/01/08 07:30:27;;;;;;;;;0.00;0.00;;;;;10.85;69.28;99922.78;5112200;27;45177;-66
2023/01/08 07:32:52;;;;;;;;;3.33;2.00;;;;;10.92;69.85;99921.06;5101300;27;44992;-67
2023/01/08 07:35:18;;;;;;;;;0.00;0.00;;;;;10.97;69.67;99922.94;5113924;27;45447;-68
2023/01/08 07:37:43;;;;;;;;;0.00;0.00;;;;;11.03;69.80;99911.41;5111644;27;45074;-69
2023/01/08 07:40:10;;;;;;;;;0.00;0.00;;;;;11.07;69.14;99918.59;5118281;27;45763;-69
2023/01/08 07:42:36;;;;;;;;;1.00;1.00;;;;;11.09;68.69;99916.84;5113392;27;45094;-68
2023/01/08 07:45:02;;;;;;;;;2.00;1.00;;;;;11.09;68.92;99913.25;5110128;27;45652;-69
2023/01/08 07:47:27;;;;;;;;;0.00;0.00;;;;;11.06;68.81;99898.09;5109149;27;45293;-69
2023/01/08 07:49:53;;;;;;;;;1.00;1.00;;;;;10.87;69.43;99854.22;5111364;27;45643;-68
2023/01/08 07:52:18;;;;;;;;;0.33;0.33;;;;;11.04;68.83;99884.69;5125812;27;45086;-68
2023/01/08 07:54:43;;;;;;;;;1.67;1.00;;;;;11.05;69.03;99873.13;5118929;27;45130;-68
2023/01/08 07:57:09;;;;;;;;;1.00;1.00;;;;;11.08;68.83;99893.66;5109723;27;45350;-68
2023/01/08 07:59:34;;;;;;;;;2.67;2.33;;;;;11.06;68.79;99884.72;5123229;27;45682;-69
2023/01/08 08:02:00;;;;;;;;;1.67;1.00;;;;;11.06;68.90;99882.94;5112412;27;45154;-69
2023/01/08 08:04:25;;;;;;;;;1.67;0.33;;;;;11.10;69.10;99894.53;5110890;27;45478;-69
2023/01/08 08:06:51;;;;;;;;;0.00;0.00;;;;;11.06;69.03;99876.69;5112251;27;45035;-67
2023/01/08 08:09:16;;;;;;;;;1.33;1.00;;;;;11.12;69.21;99883.88;5111739;27;45422;-68
2023/01/08 08:11:41;;;;;;;;;3.00;1.00;;;;;11.12;69.03;99882.13;5106274;27;45113;-67
2023/01/08 08:14:07;;;;;;;;;1.00;0.00;;;;;11.13;69.03;99888.34;5109723;27;44906;-68
2023/01/08 08:16:33;;;;;;;;;2.00;1.00;;;;;11.12;68.84;99883.88;5104670;27;45386;-66
2023/01/08 08:18:59;;;;;;;;;1.00;1.00;;;;;11.10;69.31;99885.63;5105890;27;45860;-67
2023/01/08 08:21:24;;;;;;;;;4.00;1.00;;;;;11.01;69.26;99871.31;5119212;27;45212;-67
2023/01/08 08:23:50;;;;;;;;;0.00;0.00;;;;;11.07;69.35;99874.03;5110715;27;45544;-69
2023/01/08 08:26:15;;;;;;;;;1.00;1.00;;;;;11.13;69.19;99870.53;5108913;27;45417;-70
2023/01/08 08:28:42;;;;;;;;;1.33;1.00;;;;;11.17;69.40;99868.78;5105524;27;46403;-68
2023/01/08 08:31:07;;;;;;;;;0.33;0.33;;;;;11.15;69.82;99857.16;5106023;27;45310;-69
2023/01/08 08:33:33;;;;;;;;;1.00;1.00;;;;;11.07;69.02;99849.09;5105327;27;45302;-69
2023/01/08 08:35:58;;;;;;;;;1.67;1.00;;;;;11.12;69.67;99854.47;5121455;27;45649;-66
2023/01/08 08:38:25;;;;;;;;;1.00;1.00;;;;;11.16;69.68;99862.53;5115241;27;45816;-68
2023/01/08 08:40:51;;;;;;;;;3.00;1.00;;;;;11.15;69.92;99859.84;5107207;27;45586;-66
2023/01/08 08:43:16;;;;;;;;;2.33;1.33;;;;;11.10;69.70;99846.44;5068413;27;45484;-67
2023/01/08 08:45:41;;;;;;;;;2.00;1.67;;;;;11.15;70.19;99844.72;5095381;27;45481;-67
2023/01/08 08:48:07;;;;;;;;;4.67;2.00;;;;;11.11;69.97;99850.03;5099313;27;46387;-66
2023/01/08 08:50:34;;;;;;;;;0.67;0.67;;;;;11.14;70.38;99852.72;5076381;27;45461;-68
2023/01/08 08:53:00;;;;;;;;;1.00;1.00;;;;;11.09;70.17;99841.06;5095117;27;45602;-66
2023/01/08 08:55:27;;;;;;;;;1.00;1.00;;;;;11.16;69.73;99842.94;5095465;27;45670;-66
2023/01/08 08:57:52;;;;;;;;;2.00;1.00;;;;;11.01;69.65;99811.63;5103893;27;45442;-66
2023/01/08 09:00:18;;;;;;;;;3.00;1.00;;;;;11.18;69.83;99842.06;5101600;27;45407;-69
2023/01/08 09:02:43;;;;;;;;;4.00;1.00;;;;;11.21;69.91;99846.53;5102969;27;45453;-66
2023/01/08 09:05:10;;;;;;;;;1.00;1.00;;;;;11.20;70.00;99832.28;5084277;27;45695;-66
2023/01/08 09:07:35;;;;;;;;;2.00;2.00;;;;;11.27;69.53;99846.59;5093125;27;45823;-69
2023/01/08 09:10:01;;;;;;;;;3.00;1.00;;;;;11.05;69.50;99808.06;5092033;27;45619;-72
2023/01/08 09:12:26;;;;;;;;;3.00;1.00;;;;;11.27;69.57;99848.38;5088451;27;46808;-65
2023/01/08 09:14:53;;;;;;;;;1.00;1.00;;;;;11.22;69.10;99843.88;5095352;27;45602;-70
2023/01/08 09:17:20;;;;;;;;;1.33;0.67;;;;;11.21;69.28;99834.06;5093976;27;45619;-71
2023/01/08 09:19:46;;;;;;;;;2.00;1.00;;;;;11.17;68.75;99815.28;5080315;27;45638;-68
2023/01/08 09:22:11;;;;;;;;;0.33;0.33;;;;;11.30;68.14;99849.31;5095726;27;45461;-72
2023/01/08 09:24:37;;;;;;;;;1.00;1.00;;;;;11.31;68.99;99845.72;5093481;27;45480;-69
2023/01/08 09:27:02;;;;;;;;;2.00;0.00;;;;;11.33;68.83;99841.28;5090331;27;46137;-70
2023/01/08 09:29:27;;;;;;;;;2.00;1.00;;;;;11.38;68.37;99842.25;5093427;27;45366;-68
2023/01/08 09:31:53;;;;;;;;;0.00;0.00;;;;;11.28;68.53;99816.28;5091145;27;45507;-69
2023/01/08 09:34:18;;;;;;;;;1.00;1.00;;;;;11.09;67.10;99792.94;5089180;27;45159;-70
2023/01/08 09:36:44;;;;;;;;;0.00;0.00;;;;;11.36;67.45;99844.00;5097953;27;45579;-69
2023/01/08 09:39:09;;;;;;;;;1.00;1.00;;;;;11.36;67.08;99838.66;5098188;27;45806;-69
2023/01/08 09:41:42;;;;;;;;;3.00;1.33;;;;;11.38;66.80;99839.56;5098774;27;45569;-68
2023/01/08 09:44:14;;;;;;;;;1.00;1.00;;;;;11.38;66.94;99844.00;5099447;27;45476;-71
2023/01/08 09:46:41;;;;;;;;;2.00;1.00;;;;;11.39;66.71;99843.13;5101615;27;46282;-68
2023/01/08 09:49:14;;;;;;;;;1.00;1.00;;;;;11.40;66.70;99845.81;5098794;27;45630;-69
2023/01/08 09:51:40;;;;;;;;;1.00;1.00;;;;;11.35;66.33;99822.59;5094865;27;45482;-70
2023/01/08 09:54:08;;;;;;;;;2.00;2.00;;;;;11.46;66.78;99844.97;5108519;27;45564;-69
2023/01/08 09:56:34;;;;;;;;;0.67;0.67;;;;;11.46;66.40;99844.97;5101837;27;46063;-69
2023/01/08 09:59:02;;;;;;;;;2.00;1.67;;;;;11.44;66.66;99842.28;5113300;27;45447;-69
2023/01/08 10:01:33;;;;;;;;;3.00;1.00;;;;;11.45;66.65;99848.56;5092904;27;45730;-70
2023/01/08 10:04:05;;;;;;;;;0.00;0.00;;;;;11.31;65.92;99823.47;5104555;27;45535;-69
2023/01/08 10:06:31;;;;;;;;;1.33;0.00;;;;;11.47;66.27;99852.13;5098072;27;46447;-71
2023/01/08 10:08:57;;;;;;;;;2.33;2.00;;;;;11.47;65.99;99835.19;5098363;27;45379;-68
2023/01/08 10:11:27;;;;;;;;;0.67;0.67;;;;;11.52;66.00;99842.34;5101852;27;45518;-67
2023/01/08 10:13:55;;;;;;;;;4.00;1.00;;;;;11.62;65.98;99838.84;5103157;27;45491;-67
2023/01/08 10:16:34;;;;;;;;;1.67;1.67;;;;;11.68;66.12;99835.34;5087655;27;46440;-68
2023/01/08 10:19:01;;;;;;;;;2.00;0.67;;;;;11.66;65.18;99841.56;5099490;27;45639;-67
2023/01/08 10:21:35;;;;;;;;;1.00;0.00;;;;;11.61;65.13;99837.09;5116099;27;45531;-70
2023/01/08 10:24:00;;;;;;;;;1.00;0.67;;;;;11.66;65.47;99837.09;5099060;27;45493;-72
2023/01/08 10:26:32;;;;;;;;;0.67;0.00;;;;;11.64;65.17;99840.66;5101882;27;45483;-69
2023/01/08 10:29:18;;;;;;;;;2.33;0.67;;;;;11.68;65.97;99842.47;5074385;27;45459;-70
2023/01/08 10:31:51;;;;;;;;;1.67;0.00;;;;;11.69;65.45;99842.47;5086219;27;45457;-71
2023/01/08 10:34:51;;;;;;;;;3.67;2.33;;;;;11.69;64.87;99830.88;5085535;27;45376;-72
2023/01/08 10:37:38;;;;;;;;;2.67;1.67;;;;;11.71;64.89;99818.41;5104182;27;45483;-75
2023/01/08 10:40:33;;;;;;;;;4.00;4.00;;;;;11.83;64.46;99821.19;5103690;27;45386;-74
2023/01/08 10:43:12;;;;;;;;;1.00;0.00;;;;;11.72;64.29;99783.63;5095974;27;45715;-78
2023/01/08 10:45:39;;;;;;;;;2.67;1.67;;;;;11.97;64.58;99815.91;5108268;27;45482;-78
2023/01/08 10:48:06;;;;;;;;;0.67;0.67;;;;;12.05;63.69;99813.28;5098634;27;46516;-74
2023/01/08 10:50:33;;;;;;;;;1.67;0.67;;;;;12.08;63.89;99811.53;5092097;27;45354;-73
2023/01/08 10:53:24;;;;;;;;;4.00;2.00;;;;;12.05;63.27;99803.47;5109768;27;45231;-79
2023/01/08 10:56:03;;;;;;;;;3.67;2.00;;;;;12.12;63.81;99789.22;5102777;27;45544;-74
2023/01/08 10:58:40;;;;;;;;;2.67;1.33;;;;;12.25;62.39;99803.56;5098009;27;47327;-78
2023/01/08 11:01:16;;;;;;;;;2.00;1.33;;;;;12.32;62.77;99796.44;5120539;27;45272;-76
2023/01/08 11:03:42;;;;;;;;;2.00;1.00;;;;;12.28;62.24;99787.50;5117714;27;44932;-70
2023/01/08 11:06:16;;;;;;;;;2.00;1.33;;;;;12.43;62.31;99801.84;5087574;27;45456;-75
2023/01/08 11:08:53;;;;;;;;;1.00;1.00;;;;;12.40;61.41;99769.69;5073794;27;48549;-77
2023/01/08 11:11:19;;;;;;;;;2.00;0.33;;;;;12.56;60.89;99794.75;5100908;27;45355;-78
2023/01/08 11:13:59;;;;;;;;;2.00;2.00;;;;;12.53;60.70;99779.56;5103384;27;45502;-78
2023/01/08 11:16:40;;;;;;;;;3.00;1.00;;;;;12.50;59.96;99771.50;5096207;27;45362;-72
2023/01/08 11:19:16;;;;;;;;;2.00;1.00;;;;;12.37;60.21;99750.94;5103286;27;45730;-73
2023/01/08 11:21:52;;;;;;;;;6.33;6.33;;;;;12.47;60.70;99764.38;5099273;27;45057;-74
2023/01/08 11:24:22;;;;;;;;;2.00;1.00;;;;;12.49;60.71;99759.91;5090773;27;45622;-78
2023/01/08 11:26:53;;;;;;;;;2.67;1.67;;;;;12.38;59.38;99742.91;5088574;27;45565;-73
2023/01/08 11:29:28;;;;;;;;;6.33;2.00;;;;;12.42;60.47;99746.47;5108922;27;46496;-76
2023/01/08 11:32:06;;;;;;;;;1.67;1.67;;;;;12.09;60.63;99673.19;5110405;27;45158;-78
2023/01/08 11:35:02;;;;;;;;;1.67;1.00;;;;;12.55;59.88;99729.53;5100331;27;45354;-78
2023/01/08 11:37:32;;;;;;;;;3.33;2.33;;;;;12.38;60.69;99678.63;5109137;27;45163;-72